createdAt,value
2023-02-16T00:01:45.344Z,82.54
2023-02-16T00:04:19.599Z,82.86
2023-02-16T00:06:46.560Z,82.12
2023-02-16T00:09:13.306Z,83.24
2023-02-16T00:11:40.262Z,82.48
2023-02-16T00:14:10.412Z,82.17
2023-02-16T00:16:37.212Z,82.54
2023-02-16T00:19:27.889Z,82.55
2023-02-16T00:21:58.408Z,82.57
2023-02-16T00:24:26.456Z,82.47
2023-02-16T00:26:53.747Z,82.27
2023-02-16T00:29:25.335Z,81.83
2023-02-16T00:31:53.844Z,82.43
2023-02-16T00:34:31.471Z,82.47
2023-02-16T00:37:00.609Z,82.51
2023-02-16T00:39:27.832Z,82.74
2023-02-16T00:41:56.806Z,83.34
2023-02-16T00:44:41.510Z,83.32
2023-02-16T00:47:29.130Z,83.41
2023-02-16T00:49:55.984Z,83.41
2023-02-16T00:52:38.919Z,83.25
2023-02-16T00:55:09.437Z,84.24
2023-02-16T00:57:40.047Z,84.08
2023-02-16T01:00:27.025Z,84.60
2023-02-16T01:02:57.114Z,84.38
2023-02-16T01:05:24.275Z,83.82
2023-02-16T01:07:51.080Z,84.84
2023-02-16T01:10:19.002Z,84.96
2023-02-16T01:12:45.692Z,84.55
2023-02-16T01:15:17.595Z,84.26
2023-02-16T01:17:44.242Z,84.37
2023-02-16T01:20:16.706Z,84.77
2023-02-16T01:22:43.424Z,84.62
2023-02-16T01:25:10.553Z,84.62
2023-02-16T01:27:38.759Z,84.13
2023-02-16T01:30:16.876Z,85.14
2023-02-16T01:32:43.613Z,84.89
2023-02-16T01:35:10.663Z,85.43
2023-02-16T01:37:37.289Z,84.04
2023-02-16T01:40:04.680Z,84.42
2023-02-16T01:42:44.980Z,84.47
2023-02-16T01:45:17.233Z,84.86
2023-02-16T01:47:58.529Z,84.06
2023-02-16T01:50:28.065Z,84.58
2023-02-16T01:53:06.255Z,83.82
2023-02-16T01:55:43.671Z,83.56
2023-02-16T01:58:19.197Z,83.19
2023-02-16T02:00:51.912Z,82.36
2023-02-16T02:03:20.126Z,82.57
2023-02-16T02:05:49.048Z,82.36
2023-02-16T02:08:37.900Z,82.69
2023-02-16T02:11:15.077Z,82.27
2023-02-16T02:13:55.573Z,82.28
2023-02-16T02:16:25.086Z,83.14
2023-02-16T02:18:51.836Z,82.54
2023-02-16T02:21:49.074Z,83.12
2023-02-16T02:24:58.759Z,84.49
2023-02-16T02:27:39.454Z,83.55
2023-02-16T02:30:19.649Z,82.74
2023-02-16T02:32:54.992Z,82.99
2023-02-16T02:35:52.581Z,83.13
2023-02-16T02:38:43.606Z,82.63
2023-02-16T02:41:35.708Z,83.28
2023-02-16T02:44:08.688Z,83.50
2023-02-16T02:46:36.830Z,83.36
2023-02-16T02:49:03.522Z,82.73
2023-02-16T02:51:30.162Z,83.09
2023-02-16T02:54:19.871Z,82.98
2023-02-16T02:56:55.052Z,83.58
2023-02-16T02:59:21.915Z,83.54
2023-02-16T03:01:53.273Z,83.89
2023-02-16T03:04:25.446Z,84.24
2023-02-16T03:06:56.323Z,84.00
2023-02-16T03:09:23.113Z,83.62
2023-02-16T03:11:51.318Z,83.46
2023-02-16T03:14:51.924Z,82.81
2023-02-16T03:17:23.506Z,83.37
2023-02-16T03:19:51.337Z,84.39
2023-02-16T03:22:17.648Z,84.50
2023-02-16T03:24:44.933Z,85.26
2023-02-16T03:27:13.200Z,84.69
2023-02-16T03:29:39.971Z,84.81
2023-02-16T03:32:06.673Z,85.05
2023-02-16T03:34:36.391Z,86.37
2023-02-16T03:37:03.628Z,86.01
2023-02-16T03:39:31.228Z,86.60
2023-02-16T03:41:58.085Z,86.27
2023-02-16T03:44:24.940Z,86.20
2023-02-16T03:46:51.960Z,86.64
2023-02-16T03:49:18.953Z,86.75
2023-02-16T03:51:45.933Z,86.53
2023-02-16T03:54:12.581Z,86.14
2023-02-16T03:56:38.945Z,85.52
2023-02-16T03:59:05.265Z,84.87
2023-02-16T04:01:31.662Z,85.73
2023-02-16T04:03:58.004Z,85.37
2023-02-16T04:06:24.434Z,85.78
2023-02-16T04:08:50.821Z,84.73
2023-02-16T04:11:17.110Z,85.14
2023-02-16T04:13:43.383Z,84.13
2023-02-16T04:16:09.848Z,84.58
2023-02-16T04:18:36.136Z,84.82
2023-02-16T04:21:02.922Z,83.98
2023-02-16T04:23:29.329Z,83.23
2023-02-16T04:25:55.621Z,83.53
2023-02-16T04:28:21.956Z,83.55
2023-02-16T04:30:48.426Z,82.74
2023-02-16T04:33:14.764Z,83.25
2023-02-16T04:35:41.179Z,83.70
2023-02-16T04:38:07.483Z,84.61
2023-02-16T04:40:33.865Z,84.15
2023-02-16T04:43:00.278Z,84.48
2023-02-16T04:45:26.592Z,84.69
2023-02-16T04:47:52.887Z,85.16
2023-02-16T04:50:19.388Z,84.73
2023-02-16T04:52:45.791Z,84.97
2023-02-16T04:55:12.097Z,85.34
2023-02-16T04:57:39.439Z,85.48
2023-02-16T05:00:10.221Z,85.25
2023-02-16T05:02:36.633Z,84.70
2023-02-16T05:05:03.005Z,84.74
2023-02-16T05:07:29.304Z,84.87
2023-02-16T05:09:55.626Z,84.29
2023-02-16T05:12:21.925Z,84.42
2023-02-16T05:14:48.249Z,84.50
2023-02-16T05:17:19.087Z,83.71
2023-02-16T05:19:47.787Z,84.29
2023-02-16T05:22:15.373Z,84.38
2023-02-16T05:24:42.350Z,83.93
2023-02-16T05:27:12.854Z,84.05
2023-02-16T05:29:39.205Z,83.63
2023-02-16T05:32:05.603Z,83.61
2023-02-16T05:34:32.184Z,83.88
2023-02-16T05:36:58.662Z,84.10
2023-02-16T05:39:25.012Z,83.55
2023-02-16T05:41:51.417Z,84.21
2023-02-16T05:44:17.694Z,83.56
2023-02-16T05:46:44.932Z,83.46
2023-02-16T05:49:11.215Z,83.61
2023-02-16T05:51:37.750Z,83.62
2023-02-16T05:54:04.440Z,83.22
2023-02-16T05:56:31.007Z,83.56
2023-02-16T05:59:01.273Z,84.18
2023-02-16T06:01:28.845Z,84.10
2023-02-16T06:03:55.457Z,83.87
2023-02-16T06:06:21.912Z,83.80
2023-02-16T06:08:50.848Z,83.56
2023-02-16T06:11:17.143Z,84.03
2023-02-16T06:13:43.495Z,83.51
2023-02-16T06:16:09.893Z,83.69
2023-02-16T06:18:36.648Z,83.91
2023-02-16T06:21:03.431Z,83.93
2023-02-16T06:23:29.970Z,83.90
2023-02-16T06:25:56.279Z,83.76
2023-02-16T06:28:22.598Z,84.19
2023-02-16T06:30:49.540Z,84.01
2023-02-16T06:33:15.834Z,84.17
2023-02-16T06:35:42.243Z,84.06
2023-02-16T06:38:08.533Z,84.08
2023-02-16T06:40:34.810Z,84.13
2023-02-16T06:43:01.126Z,84.12
2023-02-16T06:45:27.486Z,84.27
2023-02-16T06:47:53.912Z,85.07
2023-02-16T06:50:20.257Z,85.39
2023-02-16T06:52:46.567Z,84.38
2023-02-16T06:55:12.893Z,83.85
2023-02-16T06:57:39.289Z,84.21
2023-02-16T07:00:06.250Z,84.04
2023-02-16T07:02:32.594Z,83.57
2023-02-16T07:04:59.058Z,83.53
2023-02-16T07:07:25.358Z,83.80
2023-02-16T07:09:51.745Z,83.06
2023-02-16T07:12:18.042Z,83.08
2023-02-16T07:14:44.391Z,83.08
2023-02-16T07:17:10.768Z,83.01
2023-02-16T07:19:37.104Z,83.71
2023-02-16T07:22:03.641Z,83.60
2023-02-16T07:24:29.923Z,83.51
2023-02-16T07:26:56.414Z,82.81
2023-02-16T07:29:22.971Z,82.75
2023-02-16T07:31:49.463Z,82.64
2023-02-16T07:34:15.818Z,83.15
2023-02-16T07:36:42.150Z,83.02
2023-02-16T07:39:08.534Z,82.80
2023-02-16T07:41:34.832Z,83.15
2023-02-16T07:44:01.129Z,82.68
2023-02-16T07:46:27.542Z,82.63
2023-02-16T07:48:53.869Z,82.89
2023-02-16T07:51:25.194Z,82.75
2023-02-16T07:53:52.552Z,82.48
2023-02-16T07:56:27.964Z,81.88
2023-02-16T07:58:55.987Z,81.96
2023-02-16T08:01:22.697Z,81.81
2023-02-16T08:03:49.384Z,81.93
2023-02-16T08:06:16.166Z,81.99
2023-02-16T08:08:43.104Z,81.33
2023-02-16T08:11:15.017Z,81.79
2023-02-16T08:13:41.807Z,82.25
2023-02-16T08:16:10.419Z,81.86
2023-02-16T08:18:38.091Z,81.93
2023-02-16T08:21:19.338Z,82.54
2023-02-16T08:23:57.688Z,81.56
2023-02-16T08:26:26.313Z,81.09
2023-02-16T08:28:53.315Z,80.46
2023-02-16T08:31:22.124Z,80.40
2023-02-16T08:33:49.100Z,80.69
2023-02-16T08:36:23.561Z,79.78
2023-02-16T08:38:51.335Z,79.46
2023-02-16T08:41:19.660Z,79.40
2023-02-16T08:43:47.187Z,79.33
2023-02-16T08:46:13.993Z,78.69
2023-02-16T08:48:40.347Z,78.42
2023-02-16T08:51:07.425Z,78.15
2023-02-16T08:53:34.726Z,78.15
2023-02-16T08:56:03.728Z,77.75
2023-02-16T08:58:31.242Z,77.60
2023-02-16T09:00:57.953Z,77.58
2023-02-16T09:03:24.763Z,76.69
2023-02-16T09:05:52.516Z,76.62
2023-02-16T09:08:19.422Z,76.76
2023-02-16T09:10:45.775Z,76.64
2023-02-16T09:13:12.308Z,76.42
2023-02-16T09:15:38.684Z,75.26
2023-02-16T09:18:05.271Z,75.99
2023-02-16T09:20:31.616Z,74.81
2023-02-16T09:22:57.964Z,75.65
2023-02-16T09:25:24.278Z,75.54
2023-02-16T09:27:50.641Z,73.95
2023-02-16T09:30:17.057Z,75.54
2023-02-16T09:32:43.419Z,75.41
2023-02-16T09:35:09.711Z,73.14
2023-02-16T09:37:36.043Z,74.62
2023-02-16T09:40:02.344Z,74.62
2023-02-16T09:42:33.218Z,74.02
2023-02-16T09:45:07.161Z,72.83
2023-02-16T09:47:35.026Z,71.96
2023-02-16T09:50:06.254Z,69.97
2023-02-16T09:53:01.206Z,69.71
2023-02-16T09:55:37.858Z,69.57
2023-02-16T09:58:21.802Z,71.80
2023-02-16T10:00:57.625Z,69.55
2023-02-16T10:03:38.093Z,70.80
2023-02-16T10:06:13.480Z,68.96
2023-02-16T10:08:50.728Z,70.64
2023-02-16T10:11:24.261Z,69.33
2023-02-16T10:13:55.392Z,68.62
2023-02-16T10:16:29.560Z,68.81
2023-02-16T10:18:56.487Z,69.24
2023-02-16T10:21:27.313Z,67.42
2023-02-16T10:24:06.506Z,67.35
2023-02-16T10:26:37.226Z,66.89
2023-02-16T10:29:07.508Z,68.59
2023-02-16T10:31:47.532Z,64.77
2023-02-16T10:34:45.320Z,67.29
2023-02-16T10:37:23.663Z,65.42
2023-02-16T10:40:08.489Z,64.05
2023-02-16T10:43:08.317Z,65.81
2023-02-16T10:45:52.332Z,65.41
2023-02-16T10:48:19.922Z,66.45
2023-02-16T10:50:55.215Z,63.75
2023-02-16T10:53:33.453Z,65.57
2023-02-16T10:56:00.106Z,64.19
2023-02-16T10:58:36.582Z,64.11
2023-02-16T11:01:20.826Z,64.52
2023-02-16T11:03:50.470Z,62.36
2023-02-16T11:06:20.887Z,62.02
2023-02-16T11:08:50.425Z,63.80
2023-02-16T11:11:18.754Z,64.28
2023-02-16T11:13:49.445Z,60.98
2023-02-16T11:16:22.131Z,61.68
2023-02-16T11:19:17.364Z,61.96
2023-02-16T11:21:50.980Z,62.42
2023-02-16T11:24:37.329Z,60.99
2023-02-16T11:27:12.754Z,62.28
2023-02-16T11:29:39.944Z,62.19
2023-02-16T11:32:11.826Z,59.31
2023-02-16T11:34:43.097Z,58.30
2023-02-16T11:37:21.237Z,56.65
2023-02-16T11:40:09.426Z,60.38
2023-02-16T11:42:38.393Z,60.39
2023-02-16T11:45:05.759Z,58.37
2023-02-16T11:47:35.148Z,59.56
2023-02-16T11:50:24.021Z,56.36
2023-02-16T11:52:53.239Z,58.42
2023-02-16T11:55:27.074Z,58.51
2023-02-16T11:57:54.348Z,55.79
2023-02-16T12:00:22.870Z,58.02
2023-02-16T12:03:07.757Z,56.13
2023-02-16T12:05:46.045Z,54.35
2023-02-16T12:08:32.951Z,55.75
2023-02-16T12:11:13.244Z,53.08
2023-02-16T12:13:52.134Z,53.20
2023-02-16T12:16:34.984Z,53.46
2023-02-16T12:19:20.199Z,54.92
2023-02-16T12:22:14.244Z,54.54
2023-02-16T12:24:43.578Z,56.46
2023-02-16T12:27:30.789Z,53.26
2023-02-16T12:29:59.856Z,55.52
2023-02-16T12:32:40.876Z,52.94
2023-02-16T12:35:44.880Z,53.32
2023-02-16T12:38:26.185Z,54.64
2023-02-16T12:41:14.333Z,52.49
2023-02-16T12:43:50.734Z,52.69
2023-02-16T12:46:28.335Z,53.18
2023-02-16T12:49:07.456Z,52.33
2023-02-16T12:51:38.535Z,52.09
2023-02-16T12:54:14.915Z,53.05
2023-02-16T12:56:45.718Z,53.25
2023-02-16T12:59:38.797Z,51.59
2023-02-16T13:02:14.721Z,50.97
2023-02-16T13:04:49.124Z,50.91
2023-02-16T13:07:29.322Z,50.69
2023-02-16T13:10:04.136Z,50.55
2023-02-16T13:12:39.670Z,51.68
2023-02-16T13:15:20.100Z,51.34
2023-02-16T13:17:50.043Z,50.27
2023-02-16T13:20:21.671Z,51.47
2023-02-16T13:23:06.497Z,49.64
2023-02-16T13:25:58.675Z,48.70
2023-02-16T13:28:56.162Z,50.46
2023-02-16T13:31:37.684Z,48.95
2023-02-16T13:34:39.938Z,47.83
2023-02-16T13:37:06.218Z,48.94
2023-02-16T13:39:59.929Z,46.77
2023-02-16T13:43:03.617Z,46.52
2023-02-16T13:45:33.919Z,46.16
2023-02-16T13:48:01.287Z,46.01
2023-02-16T13:50:32.764Z,46.97
2023-02-16T13:53:12.486Z,47.02
2023-02-16T13:55:39.598Z,48.41
2023-02-16T13:58:14.785Z,46.54
2023-02-16T14:00:46.680Z,47.40
2023-02-16T14:03:37.331Z,46.80
2023-02-16T14:06:30.651Z,46.62
2023-02-16T14:09:12.136Z,45.61
2023-02-16T14:11:50.879Z,46.58
2023-02-16T14:14:43.181Z,45.77
2023-02-16T14:17:21.529Z,46.55
2023-02-16T14:20:05.817Z,46.29
2023-02-16T14:22:39.356Z,46.52
2023-02-16T14:25:28.213Z,47.02
2023-02-16T14:28:22.758Z,46.91
2023-02-16T14:31:00.529Z,46.87
2023-02-16T14:33:43.734Z,47.22
2023-02-16T14:36:17.630Z,47.13
2023-02-16T14:38:49.203Z,47.79
2023-02-16T14:41:31.367Z,47.51
2023-02-16T14:44:06.659Z,47.52
2023-02-16T14:47:29.917Z,47.62
2023-02-16T14:50:21.248Z,47.16
2023-02-16T14:53:19.948Z,48.28
2023-02-16T14:56:10.639Z,47.62
2023-02-16T14:59:05.290Z,48.30
2023-02-16T15:01:42.896Z,47.46
2023-02-16T15:04:10.700Z,47.84
2023-02-16T15:06:47.551Z,47.25
2023-02-16T15:09:21.836Z,47.74
2023-02-16T15:11:54.480Z,46.49
2023-02-16T15:14:20.781Z,47.43
2023-02-16T15:16:48.547Z,47.20
2023-02-16T15:19:26.137Z,47.49
2023-02-16T15:22:24.652Z,47.54
2023-02-16T15:25:01.533Z,47.00
2023-02-16T15:27:29.222Z,48.03
2023-02-16T15:30:06.425Z,48.23
2023-02-16T15:32:33.097Z,48.48
2023-02-16T15:34:59.456Z,48.11
2023-02-16T15:37:30.929Z,48.62
2023-02-16T15:40:24.941Z,49.17
2023-02-16T15:42:55.491Z,49.40
2023-02-16T15:45:31.878Z,49.63
2023-02-16T15:48:14.224Z,50.49
2023-02-16T15:50:42.022Z,50.25
2023-02-16T15:53:12.323Z,50.57
2023-02-16T15:55:46.752Z,49.78
2023-02-16T15:58:14.569Z,50.90
2023-02-16T16:00:42.893Z,50.82
2023-02-16T16:03:17.343Z,51.09
2023-02-16T16:05:57.267Z,51.66
2023-02-16T16:08:27.257Z,51.64
2023-02-16T16:10:54.193Z,51.86
2023-02-16T16:13:25.262Z,52.09
2023-02-16T16:15:52.873Z,52.13
2023-02-16T16:18:41.555Z,52.91
2023-02-16T16:21:14.497Z,52.87
2023-02-16T16:23:40.988Z,53.82
2023-02-16T16:26:18.938Z,53.80
2023-02-16T16:28:45.292Z,53.52
2023-02-16T16:31:20.800Z,54.52
2023-02-16T16:34:08.483Z,53.35
2023-02-16T16:36:55.654Z,54.75
2023-02-16T16:39:26.130Z,54.95
2023-02-16T16:41:55.101Z,54.92
2023-02-16T16:44:39.367Z,54.96
2023-02-16T16:47:25.677Z,54.77
2023-02-16T16:49:54.471Z,55.21
2023-02-16T16:52:43.893Z,55.46
2023-02-16T16:55:19.162Z,55.44
2023-02-16T16:58:07.052Z,55.74
2023-02-16T17:00:36.507Z,55.61
2023-02-16T17:03:05.136Z,56.10
2023-02-16T17:05:31.770Z,56.35
2023-02-16T17:07:58.122Z,56.05
2023-02-16T17:10:25.100Z,56.65
2023-02-16T17:12:54.989Z,56.90
2023-02-16T17:15:29.470Z,57.16
2023-02-16T17:17:56.618Z,56.94
2023-02-16T17:20:23.678Z,56.65
2023-02-16T17:22:50.153Z,57.00
2023-02-16T17:25:16.723Z,56.99
2023-02-16T17:27:43.023Z,57.56
2023-02-16T17:30:10.117Z,58.12
2023-02-16T17:32:37.005Z,58.73
2023-02-16T17:35:03.952Z,58.25
2023-02-16T17:37:32.671Z,59.35
2023-02-16T17:39:58.990Z,58.79
2023-02-16T17:42:27.261Z,58.99
2023-02-16T17:44:54.402Z,59.21
2023-02-16T17:47:20.674Z,58.95
2023-02-16T17:49:46.971Z,59.08
2023-02-16T17:52:13.306Z,59.25
2023-02-16T17:54:39.711Z,58.92
2023-02-16T17:57:06.012Z,58.92
2023-02-16T17:59:33.291Z,59.73
2023-02-16T18:02:00.515Z,59.96
2023-02-16T18:04:26.851Z,59.83
2023-02-16T18:06:53.177Z,60.22
2023-02-16T18:09:19.468Z,60.33
2023-02-16T18:11:46.668Z,60.53
2023-02-16T18:14:12.946Z,61.22
2023-02-16T18:16:39.530Z,60.46
2023-02-16T18:19:05.936Z,60.78
2023-02-16T18:21:32.238Z,61.47
2023-02-16T18:23:58.572Z,60.74
2023-02-16T18:26:24.863Z,61.38
2023-02-16T18:28:51.196Z,61.70
2023-02-16T18:31:17.688Z,61.55
2023-02-16T18:33:44.093Z,61.43
2023-02-16T18:36:10.415Z,61.00
2023-02-16T18:38:36.811Z,61.51
2023-02-16T18:41:03.383Z,61.56
2023-02-16T18:43:29.707Z,61.32
2023-02-16T18:45:56.155Z,61.40
2023-02-16T18:48:22.714Z,61.25
2023-02-16T18:50:49.342Z,61.70
2023-02-16T18:53:15.640Z,62.70
2023-02-16T18:55:41.935Z,61.82
2023-02-16T18:58:08.704Z,61.67
2023-02-16T19:00:36.585Z,61.91
2023-02-16T19:03:03.591Z,61.98
2023-02-16T19:05:30.086Z,61.74
2023-02-16T19:07:56.688Z,62.17
2023-02-16T19:10:23.094Z,61.97
2023-02-16T19:12:49.387Z,62.23
2023-02-16T19:15:15.886Z,62.29
2023-02-16T19:17:42.440Z,62.18
2023-02-16T19:20:09.879Z,62.35
2023-02-16T19:22:36.275Z,62.03
2023-02-16T19:25:04.563Z,62.51
2023-02-16T19:27:30.854Z,62.63
2023-02-16T19:29:57.209Z,62.65
2023-02-16T19:32:23.537Z,62.27
2023-02-16T19:34:49.937Z,62.66
2023-02-16T19:37:16.234Z,62.54
2023-02-16T19:39:42.570Z,63.09
2023-02-16T19:42:08.932Z,62.58
2023-02-16T19:44:35.234Z,62.51
2023-02-16T19:47:01.558Z,62.76
2023-02-16T19:49:27.881Z,63.32
2023-02-16T19:51:54.169Z,63.06
2023-02-16T19:54:20.472Z,63.05
2023-02-16T19:56:46.782Z,63.25
2023-02-16T19:59:13.109Z,63.10
2023-02-16T20:01:39.423Z,63.31
2023-02-16T20:04:05.887Z,63.19
2023-02-16T20:06:34.618Z,63.08
2023-02-16T20:09:01.380Z,63.17
2023-02-16T20:11:28.825Z,62.87
2023-02-16T20:13:56.360Z,63.55
2023-02-16T20:16:23.237Z,63.66
2023-02-16T20:18:50.355Z,62.76
2023-02-16T20:21:22.219Z,62.71
2023-02-16T20:23:50.235Z,62.44
2023-02-16T20:26:19.622Z,63.28
2023-02-16T20:28:47.396Z,62.75
2023-02-16T20:31:17.247Z,62.80
2023-02-16T20:33:44.298Z,63.23
2023-02-16T20:36:11.684Z,63.23
2023-02-16T20:38:38.753Z,63.08
2023-02-16T20:41:06.130Z,62.91
2023-02-16T20:43:33.158Z,63.32
2023-02-16T20:46:01.266Z,63.57
2023-02-16T20:48:27.629Z,63.42
2023-02-16T20:50:55.601Z,63.80
2023-02-16T20:53:22.709Z,63.50
2023-02-16T20:55:49.307Z,63.58
2023-02-16T20:58:16.094Z,63.95
2023-02-16T21:00:45.522Z,64.10
2023-02-16T21:03:11.863Z,63.90
2023-02-16T21:05:38.328Z,64.16
2023-02-16T21:08:04.815Z,64.40
2023-02-16T21:10:31.267Z,64.48
2023-02-16T21:12:57.560Z,64.45
2023-02-16T21:15:23.991Z,64.37
2023-02-16T21:17:50.286Z,64.67
2023-02-16T21:20:16.596Z,64.18
2023-02-16T21:22:43.035Z,64.36
2023-02-16T21:25:09.693Z,64.52
2023-02-16T21:27:36.138Z,64.52
2023-02-16T21:30:03.339Z,64.33
2023-02-16T21:32:29.764Z,64.33
2023-02-16T21:34:56.162Z,64.45
2023-02-16T21:37:22.750Z,64.75
2023-02-16T21:39:49.025Z,64.12
2023-02-16T21:42:15.350Z,64.14
2023-02-16T21:44:41.662Z,63.97
2023-02-16T21:47:11.320Z,64.33
2023-02-16T21:49:37.799Z,64.59
2023-02-16T21:52:04.177Z,64.27
2023-02-16T21:54:30.466Z,64.86
2023-02-16T21:56:56.793Z,64.01
2023-02-16T21:59:23.095Z,64.46
2023-02-16T22:01:51.380Z,64.29
2023-02-16T22:04:20.132Z,64.25
2023-02-16T22:06:48.963Z,64.10
2023-02-16T22:09:18.906Z,64.05
2023-02-16T22:11:46.873Z,64.72
2023-02-16T22:14:13.353Z,64.18
2023-02-16T22:16:39.972Z,64.11
2023-02-16T22:19:12.473Z,64.51
2023-02-16T22:21:40.416Z,64.07
2023-02-16T22:24:07.823Z,64.66
2023-02-16T22:26:35.702Z,64.84
2023-02-16T22:29:06.793Z,64.34
2023-02-16T22:31:34.171Z,64.78
2023-02-16T22:34:03.496Z,64.68
2023-02-16T22:36:29.820Z,64.30
2023-02-16T22:38:56.426Z,64.74
2023-02-16T22:41:23.629Z,65.19
2023-02-16T22:43:54.852Z,64.85
2023-02-16T22:46:22.869Z,65.14
2023-02-16T22:48:49.453Z,65.09
2023-02-16T22:51:16.814Z,65.16
2023-02-16T22:53:43.669Z,65.60
2023-02-16T22:56:13.342Z,65.48
2023-02-16T22:58:39.755Z,65.47
2023-02-16T23:01:11.904Z,66.55
2023-02-16T23:03:38.563Z,65.84
2023-02-16T23:06:16.416Z,66.20
2023-02-16T23:08:43.907Z,66.53
2023-02-16T23:11:10.663Z,66.72
2023-02-16T23:13:37.483Z,66.96
2023-02-16T23:16:09.308Z,66.75
2023-02-16T23:18:35.611Z,66.92
2023-02-16T23:21:17.991Z,68.40
2023-02-16T23:23:45.495Z,67.36
2023-02-16T23:26:12.200Z,67.94
2023-02-16T23:28:40.994Z,68.44
2023-02-16T23:31:08.009Z,68.23
2023-02-16T23:33:34.490Z,68.06
2023-02-16T23:36:01.056Z,68.08
2023-02-16T23:38:27.446Z,69.39
2023-02-16T23:41:02.230Z,69.85
2023-02-16T23:43:29.103Z,68.87
2023-02-16T23:45:55.732Z,68.82
2023-02-16T23:48:23.074Z,68.72
2023-02-16T23:50:50.777Z,69.22
2023-02-16T23:53:18.348Z,68.86
2023-02-16T23:55:44.811Z,69.84
2023-02-16T23:58:11.098Z,69.65
